Wetter

ACHTUNG: Die hier angeboten Wetter-Informationen sind nicht geeicht und dürfen für Flugvorbereitungen nicht verwendet werden
ACG Flugwetter

METAR/TAF LOXZ

LOXZ 042350Z 26003KT 230V300 30KM FEW040SC BKN070SC 10/09 Q1017

TAF LOXZ 181415Z 1812/1824 CNL

METAR/TAF LOXA

LOXA 100820Z VRB02KT 50KM FEW120AC SCT300CI 17/13 Q1021 NOSIG RMK SCT

TAF TAF LOXA 090515Z 0906/0918 VRB03KT 0500 FG SCT060 BECMG 0906/0908 9999 NSW FEW060 BECMG 0909/0911 04007KT TEMPO 0910/0915 SCT060 BKN100

METAR/TAF LOWG 

LOWG 050120Z AUTO 34012KT 9999 FEW070 17/08 Q1014

TAF LOWG 041715Z 0418/0518 35010KT 9999 FEW045 SCT060 TX22/0515Z TN15/0504Z PROB30 TEMPO 0418/0421 SHRA TEMPO 0507/0518 -SHRA PROB40 TEMPO 0510/0516 SHRA BECMG 0510/0513 VRB04KT

(Information der letzten Stunde)

(Information der letzten Stunde)

Dichtehöhe (in LOGT)
Temperatur / Windchill der letzten 10 Tage

Ext. Links zu Wetterdiensten

ALDIS

Öster.- Unwetterzentrale